createdAt,value
2023-01-09T07:04:07.044Z,91.22
2023-01-09T07:05:06.885Z,91.42
2023-01-09T07:06:06.702Z,90.80
2023-01-09T07:07:06.528Z,92.40
2023-01-09T07:08:06.517Z,91.53
2023-01-09T07:09:06.490Z,91.53
2023-01-09T07:10:06.476Z,91.94
2023-01-09T07:11:06.478Z,92.15
2023-01-09T07:12:06.497Z,92.46
2023-01-09T07:13:06.514Z,92.77
2023-01-09T07:14:06.465Z,92.67
2023-01-09T07:15:06.467Z,92.87
2023-01-09T07:16:06.452Z,92.87
2023-01-09T07:17:06.459Z,93.08
2023-01-09T07:18:06.431Z,93.08
2023-01-09T07:19:06.425Z,93.39
2023-01-09T07:20:06.415Z,93.85
2023-01-09T07:21:06.400Z,93.70
2023-01-09T07:22:06.457Z,92.97
2023-01-09T07:23:06.383Z,93.91
2023-01-09T07:24:06.381Z,92.67
2023-01-09T07:25:06.412Z,93.43
2023-01-09T07:26:06.390Z,92.81
2023-01-09T07:27:06.397Z,93.80
2023-01-09T07:28:06.378Z,93.91
2023-01-09T07:29:06.355Z,93.74
2023-01-09T07:30:06.379Z,93.74
2023-01-09T07:31:06.364Z,93.85
2023-01-09T07:32:06.400Z,93.08
2023-01-09T07:33:06.310Z,92.91
2023-01-09T07:34:06.337Z,92.91
2023-01-09T07:35:06.298Z,92.91
2023-01-09T07:36:06.293Z,92.91
2023-01-09T07:37:06.326Z,93.12
2023-01-09T07:38:06.278Z,92.15
2023-01-09T07:39:06.306Z,92.40
2023-01-09T07:40:06.274Z,92.15
2023-01-09T07:41:06.261Z,92.05
2023-01-09T07:42:06.292Z,92.67
2023-01-09T07:43:06.252Z,92.05
2023-01-09T07:44:06.250Z,90.80
2023-01-09T07:45:06.246Z,92.46
2023-01-09T07:46:06.349Z,92.15
2023-01-09T07:47:06.238Z,91.63
2023-01-09T07:48:06.218Z,92.15
2023-01-09T07:49:06.224Z,92.36
2023-01-09T07:50:06.206Z,92.05
2023-01-09T07:51:06.215Z,92.05
2023-01-09T07:52:06.234Z,92.25
2023-01-09T07:53:06.187Z,92.57
2023-01-09T07:54:06.178Z,92.46
2023-01-09T07:55:06.236Z,92.15
2023-01-09T07:56:06.150Z,91.53
2023-01-09T07:57:06.189Z,92.46
2023-01-09T07:58:06.175Z,90.91
2023-01-09T07:59:06.179Z,91.63
2023-01-09T08:00:06.161Z,91.63
2023-01-09T08:01:06.186Z,91.74
2023-01-09T08:02:06.232Z,90.60
2023-01-09T08:03:06.166Z,90.39
2023-01-09T08:04:06.130Z,90.60
2023-01-09T08:05:06.095Z,90.39
2023-01-09T08:06:06.109Z,90.45
2023-01-09T08:07:06.115Z,90.45
2023-01-09T08:08:06.065Z,90.39
2023-01-09T08:09:06.073Z,89.42
2023-01-09T08:10:06.064Z,89.01
2023-01-09T08:11:06.080Z,89.42
2023-01-09T08:12:06.130Z,89.15
2023-01-09T08:13:06.060Z,89.01
2023-01-09T08:14:06.030Z,89.52
2023-01-09T08:15:06.019Z,88.80
2023-01-09T08:16:06.072Z,89.22
2023-01-09T08:17:06.036Z,89.52
2023-01-09T08:18:06.001Z,89.52
2023-01-09T08:19:06.011Z,89.11
2023-01-09T08:20:06.141Z,88.84
2023-01-09T08:21:06.001Z,89.01
2023-01-09T08:22:06.013Z,89.01
2023-01-09T08:23:06.003Z,89.42
2023-01-09T08:24:05.992Z,89.94
2023-01-09T08:25:05.962Z,89.62
2023-01-09T08:26:05.982Z,89.42
2023-01-09T08:27:05.974Z,90.14
2023-01-09T08:28:05.945Z,89.52
2023-01-09T08:29:05.952Z,89.83
2023-01-09T08:30:05.947Z,90.14
2023-01-09T08:31:06.012Z,90.87
2023-01-09T08:32:05.945Z,89.94
2023-01-09T08:33:05.939Z,91.69
2023-01-09T08:34:05.909Z,90.80
2023-01-09T08:35:06.018Z,91.49
2023-01-09T08:36:05.951Z,91.38
2023-01-09T08:37:05.901Z,91.80
2023-01-09T08:38:05.902Z,91.59
2023-01-09T08:39:05.871Z,90.66
2023-01-09T08:40:05.868Z,90.87
2023-01-09T08:41:05.853Z,90.87
2023-01-09T08:42:05.862Z,90.04
2023-01-09T08:43:05.861Z,90.87
2023-01-09T08:44:05.853Z,88.90
2023-01-09T08:45:05.841Z,89.22
2023-01-09T08:46:05.961Z,89.42
2023-01-09T08:47:05.846Z,88.80
2023-01-09T08:48:05.867Z,89.01
2023-01-09T08:49:05.826Z,89.01
2023-01-09T08:50:05.812Z,88.80
2023-01-09T08:51:05.792Z,89.32
2023-01-09T08:52:05.837Z,89.62
2023-01-09T08:53:05.782Z,90.70
2023-01-09T08:54:05.796Z,89.11
2023-01-09T08:55:05.765Z,89.22
2023-01-09T08:56:05.798Z,88.80
2023-01-09T08:57:05.778Z,89.11
2023-01-09T08:58:05.774Z,88.59
2023-01-09T08:59:05.774Z,87.97
2023-01-09T09:00:05.732Z,87.46
2023-01-09T09:01:05.740Z,88.90
2023-01-09T09:02:05.720Z,88.76
2023-01-09T09:03:05.778Z,89.38
2023-01-09T09:04:05.729Z,88.76
2023-01-09T09:05:05.719Z,86.73
2023-01-09T09:06:06.363Z,87.62
2023-01-09T09:07:05.718Z,87.83
2023-01-09T09:08:05.677Z,88.34
2023-01-09T09:09:05.680Z,86.69
2023-01-09T09:10:05.693Z,87.62
2023-01-09T09:11:05.661Z,88.24
2023-01-09T09:12:05.698Z,85.97
2023-01-09T09:13:05.644Z,86.90
2023-01-09T09:14:05.664Z,87.52
2023-01-09T09:15:05.678Z,87.41
2023-01-09T09:16:05.691Z,87.62
2023-01-09T09:17:05.693Z,86.18
2023-01-09T09:18:05.613Z,86.18
2023-01-09T09:19:05.630Z,87.10
2023-01-09T09:20:05.591Z,86.90
2023-01-09T09:21:05.581Z,88.55
2023-01-09T09:22:05.627Z,88.34
2023-01-09T09:23:05.631Z,87.62
2023-01-09T09:24:05.570Z,86.18
2023-01-09T09:25:05.582Z,87.07
2023-01-09T09:26:05.589Z,86.38
2023-01-09T09:27:05.617Z,86.38
2023-01-09T09:28:05.548Z,86.49
2023-01-09T09:29:05.534Z,86.79
2023-01-09T09:30:05.528Z,86.49
2023-01-09T09:31:05.541Z,86.07
2023-01-09T09:32:05.514Z,85.97
2023-01-09T09:33:05.550Z,87.41
2023-01-09T09:34:05.510Z,87.31
2023-01-09T09:35:05.574Z,86.38
2023-01-09T09:36:05.530Z,86.18
2023-01-09T09:37:05.555Z,86.07
2023-01-09T09:38:05.830Z,86.69
2023-01-09T09:39:05.474Z,86.73
2023-01-09T09:40:17.557Z,86.38
2023-01-09T09:41:07.474Z,87.62
2023-01-09T09:42:05.476Z,88.04
2023-01-09T09:43:05.502Z,88.04
2023-01-09T09:44:05.455Z,88.55
2023-01-09T09:45:05.488Z,87.21
2023-01-09T09:46:05.493Z,86.79
2023-01-09T09:47:05.464Z,86.38
2023-01-09T09:48:05.502Z,87.21
2023-01-09T09:49:07.051Z,86.79
2023-01-09T09:50:06.408Z,86.69
2023-01-09T09:51:05.412Z,87.21
2023-01-09T09:52:05.374Z,86.59
2023-01-09T09:53:05.384Z,87.31
2023-01-09T09:54:05.389Z,88.96
2023-01-09T09:55:05.370Z,88.04
2023-01-09T09:56:05.356Z,87.48
2023-01-09T09:57:05.413Z,87.41
2023-01-09T09:58:05.353Z,86.13
2023-01-09T09:59:05.342Z,87.17
2023-01-09T10:00:05.331Z,87.48
2023-01-09T10:01:05.324Z,86.44
2023-01-09T10:02:05.344Z,87.99
2023-01-09T10:03:05.372Z,87.99
2023-01-09T10:04:05.308Z,88.26
2023-01-09T10:05:05.336Z,86.10
2023-01-09T10:06:05.326Z,87.02
2023-01-09T10:07:05.318Z,86.41
2023-01-09T10:08:15.491Z,85.37
2023-01-09T10:09:07.272Z,86.61
2023-01-09T10:10:05.276Z,86.10
2023-01-09T10:11:05.263Z,85.58
2023-01-09T10:12:05.261Z,86.92
2023-01-09T10:13:05.253Z,88.37
2023-01-09T10:14:06.396Z,86.16
2023-01-09T10:15:06.247Z,85.02
2023-01-09T10:16:05.343Z,86.05
2023-01-09T10:17:05.216Z,86.16
2023-01-09T10:18:05.237Z,85.02
2023-01-09T10:19:05.199Z,86.26
2023-01-09T10:20:05.230Z,86.26
2023-01-09T10:21:05.221Z,84.81
2023-01-09T10:22:06.049Z,84.72
2023-01-09T10:23:05.201Z,84.30
2023-01-09T10:24:05.255Z,85.13
2023-01-09T10:25:05.199Z,83.72
2023-01-09T10:26:05.183Z,83.83
2023-01-09T10:27:05.183Z,85.17
2023-01-09T10:28:05.222Z,85.27
2023-01-09T10:29:05.131Z,85.58
2023-01-09T10:30:05.145Z,86.30
2023-01-09T10:31:05.211Z,84.96
2023-01-09T10:32:05.106Z,85.47
2023-01-09T10:33:05.134Z,85.37
2023-01-09T10:34:05.118Z,86.68
2023-01-09T10:35:05.130Z,86.05
2023-01-09T10:36:05.088Z,85.54
2023-01-09T10:37:05.169Z,85.13
2023-01-09T10:38:05.089Z,85.02
2023-01-09T10:39:05.077Z,84.92
2023-01-09T10:40:05.066Z,85.13
2023-01-09T10:41:06.067Z,84.20
2023-01-09T10:42:05.125Z,85.02
2023-01-09T10:43:05.068Z,84.92
2023-01-09T10:44:05.022Z,85.02
2023-01-09T10:45:05.068Z,84.81
2023-01-09T10:46:05.090Z,82.75
2023-01-09T10:47:05.016Z,83.99
2023-01-09T10:48:05.051Z,83.99
2023-01-09T10:49:04.991Z,82.86
2023-01-09T10:50:05.036Z,83.68
2023-01-09T10:51:04.977Z,85.30
2023-01-09T10:52:05.012Z,85.44
2023-01-09T10:53:05.001Z,85.75
2023-01-09T10:54:04.997Z,84.06
2023-01-09T10:55:04.987Z,83.95
2023-01-09T10:56:04.955Z,84.88
2023-01-09T10:57:04.959Z,85.30
2023-01-09T10:58:04.955Z,85.39
2023-01-09T10:59:04.939Z,84.99
2023-01-09T11:00:04.920Z,84.27
2023-01-09T11:01:04.930Z,83.54
2023-01-09T11:02:04.985Z,84.16
2023-01-09T11:03:04.931Z,84.88
2023-01-09T11:04:04.913Z,84.78
2023-01-09T11:05:04.889Z,84.67
2023-01-09T11:06:04.896Z,83.44
2023-01-09T11:07:04.875Z,83.33
2023-01-09T11:08:04.879Z,84.99
2023-01-09T11:09:04.850Z,84.16
2023-01-09T11:10:04.858Z,85.09
2023-01-09T11:11:04.847Z,84.27
2023-01-09T11:12:04.854Z,83.23
2023-01-09T11:13:04.851Z,83.95
2023-01-09T11:14:04.845Z,84.88
2023-01-09T11:15:04.847Z,85.39
2023-01-09T11:16:04.870Z,85.30
2023-01-09T11:17:04.824Z,85.71
2023-01-09T11:18:04.862Z,85.91
2023-01-09T11:19:04.803Z,84.67
2023-01-09T11:20:04.790Z,85.91
2023-01-09T11:21:04.776Z,85.91
2023-01-09T11:22:04.759Z,85.91
2023-01-09T11:23:04.785Z,85.71
2023-01-09T11:24:04.752Z,84.99
2023-01-09T11:25:04.791Z,86.43
2023-01-09T11:26:04.818Z,86.53
2023-01-09T11:27:04.753Z,85.50
2023-01-09T11:28:04.769Z,84.78
2023-01-09T11:29:04.753Z,85.02
2023-01-09T11:30:04.769Z,84.78
2023-01-09T11:31:04.786Z,86.02
2023-01-09T11:32:04.695Z,86.26
2023-01-09T11:33:04.720Z,84.88
2023-01-09T11:34:04.745Z,84.99
2023-01-09T11:35:04.744Z,86.22
2023-01-09T11:36:04.690Z,87.05
2023-01-09T11:37:04.708Z,86.29
2023-01-09T11:38:04.671Z,85.46
2023-01-09T11:39:04.696Z,85.97
2023-01-09T11:40:04.720Z,85.97
2023-01-09T11:41:04.679Z,85.46
2023-01-09T11:42:04.667Z,84.94
2023-01-09T11:43:04.670Z,84.74
2023-01-09T11:44:04.688Z,85.05
2023-01-09T11:45:04.614Z,84.94
2023-01-09T11:46:04.656Z,85.57
2023-01-09T11:47:04.645Z,85.39
2023-01-09T11:48:04.645Z,85.81
2023-01-09T11:49:04.581Z,86.80
2023-01-09T11:50:05.629Z,86.53
2023-01-09T11:51:04.561Z,87.35
2023-01-09T11:52:04.576Z,87.15
2023-01-09T11:53:04.613Z,86.43
2023-01-09T11:54:04.557Z,87.56
2023-01-09T11:55:04.587Z,88.59
2023-01-09T11:56:04.553Z,88.80
2023-01-09T11:57:04.551Z,88.76
2023-01-09T11:58:04.564Z,89.32
2023-01-09T11:59:04.552Z,90.72
2023-01-09T12:00:04.557Z,90.14
2023-01-09T12:01:04.502Z,88.56
2023-01-09T12:02:04.578Z,87.87
2023-01-09T12:03:04.560Z,87.46
2023-01-09T12:04:04.520Z,87.46
2023-01-09T12:05:04.579Z,88.80
2023-01-09T12:06:04.528Z,88.49
2023-01-09T12:07:04.758Z,88.90
2023-01-09T12:08:04.468Z,90.31
2023-01-09T12:09:04.455Z,89.38
2023-01-09T12:10:04.479Z,88.90
2023-01-09T12:11:04.457Z,88.86
2023-01-09T12:12:04.439Z,89.07
2023-01-09T12:13:04.482Z,88.59
2023-01-09T12:14:04.426Z,90.00
2023-01-09T12:15:04.446Z,90.61
2023-01-09T12:16:04.509Z,89.75
2023-01-09T12:17:04.440Z,90.47
2023-01-09T12:18:04.415Z,88.99
2023-01-09T12:19:05.640Z,88.89
2023-01-09T12:20:04.371Z,88.41
2023-01-09T12:21:04.432Z,88.62
2023-01-09T12:22:04.351Z,86.97
2023-01-09T12:23:04.372Z,85.42
2023-01-09T12:24:04.360Z,85.94
2023-01-09T12:25:04.362Z,86.97
2023-01-09T12:26:04.345Z,87.48
2023-01-09T12:27:04.326Z,87.38
2023-01-09T12:28:04.364Z,87.79
2023-01-09T12:29:04.320Z,86.76
2023-01-09T12:30:04.314Z,86.55
2023-01-09T12:31:04.331Z,87.79
2023-01-09T12:32:04.371Z,87.17
2023-01-09T12:33:04.287Z,86.35
2023-01-09T12:34:04.329Z,87.17
2023-01-09T12:35:04.307Z,86.39
2023-01-09T12:36:04.267Z,87.38
2023-01-09T12:37:04.303Z,86.29
2023-01-09T12:38:04.278Z,86.87
2023-01-09T12:39:04.316Z,86.39
2023-01-09T12:40:04.266Z,86.70
2023-01-09T12:41:06.740Z,87.79
2023-01-09T12:42:04.278Z,86.45
2023-01-09T12:43:04.231Z,86.66
2023-01-09T12:44:04.280Z,86.10
2023-01-09T12:45:04.246Z,87.85
2023-01-09T12:46:04.250Z,84.66
2023-01-09T12:47:04.217Z,83.42
2023-01-09T12:48:04.199Z,84.87
2023-01-09T12:49:04.193Z,84.70
2023-01-09T12:50:04.190Z,85.31
2023-01-09T12:51:04.168Z,85.38
2023-01-09T12:52:04.174Z,86.41
2023-01-09T12:53:04.184Z,83.53
2023-01-09T12:54:04.156Z,84.62
2023-01-09T12:55:05.121Z,83.49
2023-01-09T12:56:05.152Z,83.90
2023-01-09T12:57:04.167Z,83.49
2023-01-09T12:58:04.167Z,83.18
2023-01-09T12:59:04.124Z,83.39
2023-01-09T13:00:04.124Z,84.00
2023-01-09T13:01:04.191Z,83.59
2023-01-09T13:02:04.153Z,81.95
2023-01-09T13:03:12.439Z,82.70
2023-01-09T13:04:06.093Z,81.57
2023-01-09T13:05:04.070Z,83.01
2023-01-09T13:06:04.099Z,81.77
